createdAt,value
2023-04-06T00:01:14.312Z,8.10
2023-04-06T00:03:38.408Z,7.27
2023-04-06T00:06:02.275Z,6.33
2023-04-06T00:08:26.607Z,7.07
2023-04-06T00:10:50.438Z,7.07
2023-04-06T00:13:16.255Z,6.87
2023-04-06T00:15:40.127Z,6.63
2023-04-06T00:18:04.902Z,6.97
2023-04-06T00:20:28.865Z,7.40
2023-04-06T00:22:52.748Z,7.07
2023-04-06T00:25:17.443Z,6.87
2023-04-06T00:27:41.384Z,7.80
2023-04-06T00:30:08.507Z,6.93
2023-04-06T00:32:32.354Z,6.97
2023-04-06T00:34:56.192Z,7.53
2023-04-06T00:37:20.411Z,7.13
2023-04-06T00:39:44.800Z,7.17
2023-04-06T00:42:14.635Z,7.60
2023-04-06T00:44:38.459Z,7.00
2023-04-06T00:47:03.831Z,7.13
2023-04-06T00:49:27.652Z,7.73
2023-04-06T00:51:51.479Z,7.10
2023-04-06T00:54:15.709Z,6.93
2023-04-06T00:56:40.599Z,7.17
2023-04-06T00:59:05.274Z,6.97
2023-04-06T01:01:29.885Z,6.37
2023-04-06T01:03:59.037Z,7.00
2023-04-06T01:06:23.014Z,7.00
2023-04-06T01:08:55.734Z,6.60
2023-04-06T01:11:22.329Z,7.10
2023-04-06T01:13:48.033Z,7.00
2023-04-06T01:16:37.938Z,6.37
2023-04-06T01:19:25.313Z,6.77
2023-04-06T01:21:51.605Z,6.70
2023-04-06T01:24:37.150Z,7.07
2023-04-06T01:27:11.674Z,7.00
2023-04-06T01:30:01.752Z,6.80
2023-04-06T01:32:45.936Z,6.90
2023-04-06T01:35:12.454Z,6.83
2023-04-06T01:37:42.938Z,7.90
2023-04-06T01:40:14.819Z,8.33
2023-04-06T01:42:46.284Z,9.80
2023-04-06T01:45:15.801Z,8.70
2023-04-06T01:47:39.919Z,9.97
2023-04-06T01:50:06.411Z,8.40
2023-04-06T01:52:34.961Z,8.67
2023-04-06T01:54:58.733Z,8.77
2023-04-06T01:57:56.050Z,8.70
2023-04-06T02:00:30.129Z,8.37
2023-04-06T02:02:54.274Z,9.23
2023-04-06T02:05:22.636Z,9.47
2023-04-06T02:07:48.605Z,9.13
2023-04-06T02:10:17.713Z,8.47
2023-04-06T02:12:42.183Z,8.53
2023-04-06T02:15:14.293Z,9.23
2023-04-06T02:17:38.278Z,9.80
2023-04-06T02:20:02.031Z,9.87
2023-04-06T02:22:26.803Z,9.70
2023-04-06T02:24:50.746Z,9.17
2023-04-06T02:27:14.681Z,8.90
2023-04-06T02:29:38.436Z,9.40
2023-04-06T02:32:03.843Z,9.10
2023-04-06T02:34:30.869Z,9.73
2023-04-06T02:36:54.730Z,10.20
2023-04-06T02:39:18.629Z,9.87
2023-04-06T02:41:42.536Z,9.00
2023-04-06T02:44:09.531Z,9.20
2023-04-06T02:46:39.808Z,9.23
2023-04-06T02:49:05.927Z,8.07
2023-04-06T02:51:31.878Z,9.30
2023-04-06T02:54:05.998Z,9.07
2023-04-06T02:56:30.120Z,8.13
2023-04-06T02:58:54.045Z,8.57
2023-04-06T03:01:21.991Z,7.73
2023-04-06T03:03:51.628Z,8.87
2023-04-06T03:06:22.609Z,8.63
2023-04-06T03:08:50.704Z,8.50
2023-04-06T03:11:14.498Z,8.23
2023-04-06T03:13:40.543Z,7.87
2023-04-06T03:16:05.237Z,8.13
2023-04-06T03:18:29.305Z,8.50
2023-04-06T03:20:56.028Z,7.97
2023-04-06T03:23:26.285Z,8.60
2023-04-06T03:25:55.012Z,7.80
2023-04-06T03:28:19.029Z,8.63
2023-04-06T03:30:57.837Z,8.53
2023-04-06T03:33:37.449Z,8.70
2023-04-06T03:36:01.488Z,8.03
2023-04-06T03:38:27.785Z,8.50
2023-04-06T03:40:52.478Z,8.67
2023-04-06T03:43:20.816Z,8.90
2023-04-06T03:45:44.623Z,8.47
2023-04-06T03:48:09.145Z,8.60
2023-04-06T03:50:35.402Z,9.10
2023-04-06T03:52:59.326Z,9.43
2023-04-06T03:55:24.832Z,8.27
2023-04-06T03:57:48.576Z,7.77
2023-04-06T04:00:14.514Z,8.93
2023-04-06T04:02:38.444Z,8.53
2023-04-06T04:05:02.437Z,8.83
2023-04-06T04:07:26.296Z,8.87
2023-04-06T04:09:50.236Z,8.43
2023-04-06T04:12:17.777Z,8.33
2023-04-06T04:14:41.680Z,9.07
2023-04-06T04:17:05.433Z,9.10
2023-04-06T04:19:29.290Z,10.10
2023-04-06T04:21:54.302Z,12.63
2023-04-06T04:24:26.140Z,13.83
2023-04-06T04:26:50.062Z,11.83
2023-04-06T04:29:15.463Z,12.43
2023-04-06T04:31:39.492Z,11.57
2023-04-06T04:34:10.928Z,11.20
2023-04-06T04:36:36.022Z,11.57
2023-04-06T04:39:03.519Z,11.43
2023-04-06T04:41:32.496Z,11.47
2023-04-06T04:43:57.044Z,11.17
2023-04-06T04:46:24.281Z,11.73
2023-04-06T04:48:49.461Z,11.40
2023-04-06T04:51:13.423Z,10.93
2023-04-06T04:53:51.342Z,11.50
2023-04-06T04:56:20.120Z,10.63
2023-04-06T04:58:46.944Z,10.77
2023-04-06T05:01:11.558Z,12.07
2023-04-06T05:03:39.964Z,11.23
2023-04-06T05:06:09.405Z,10.80
2023-04-06T05:08:36.618Z,10.57
2023-04-06T05:11:01.232Z,10.67
2023-04-06T05:13:28.185Z,11.57
2023-04-06T05:15:53.207Z,10.87
2023-04-06T05:18:23.669Z,10.23
2023-04-06T05:20:49.604Z,11.57
2023-04-06T05:23:14.106Z,10.67
2023-04-06T05:25:38.009Z,10.87
2023-04-06T05:28:11.636Z,11.00
2023-04-06T05:30:36.663Z,11.40
2023-04-06T05:33:01.721Z,11.30
2023-04-06T05:35:33.010Z,10.67
2023-04-06T05:38:05.903Z,10.90
2023-04-06T05:40:29.838Z,10.47
2023-04-06T05:42:53.902Z,10.90
2023-04-06T05:45:19.536Z,11.77
2023-04-06T05:47:48.815Z,11.83
2023-04-06T05:50:19.959Z,11.37
2023-04-06T05:52:46.234Z,12.27
2023-04-06T05:55:14.301Z,12.17
2023-04-06T05:57:41.237Z,13.70
2023-04-06T06:00:07.624Z,13.17
2023-04-06T06:02:43.975Z,12.73
2023-04-06T06:05:14.167Z,14.37
2023-04-06T06:07:39.540Z,14.13
2023-04-06T06:10:03.344Z,13.40
2023-04-06T06:12:31.931Z,11.93
2023-04-06T06:14:57.500Z,12.00
2023-04-06T06:17:23.569Z,11.73
2023-04-06T06:19:47.954Z,11.43
2023-04-06T06:22:12.781Z,10.30
2023-04-06T06:24:39.794Z,10.10
2023-04-06T06:27:03.591Z,10.03
2023-04-06T06:29:31.630Z,10.80
2023-04-06T06:31:57.142Z,9.37
2023-04-06T06:34:21.833Z,9.75
2023-04-06T06:36:48.070Z,10.10
2023-04-06T06:39:13.757Z,9.60
2023-04-06T06:41:37.677Z,10.32
2023-04-06T06:44:02.549Z,9.40
2023-04-06T06:46:28.028Z,9.82
2023-04-06T06:48:52.069Z,9.00
2023-04-06T06:51:15.888Z,9.40
2023-04-06T06:53:39.796Z,9.68
2023-04-06T06:56:03.744Z,9.65
2023-04-06T06:58:28.105Z,8.85
2023-04-06T07:00:52.136Z,9.00
2023-04-06T07:03:18.315Z,9.23
2023-04-06T07:05:51.082Z,7.82
2023-04-06T07:08:15.028Z,7.55
2023-04-06T07:10:39.165Z,8.15
2023-04-06T07:13:03.101Z,8.93
2023-04-06T07:15:27.129Z,7.25
2023-04-06T07:17:51.232Z,8.30
2023-04-06T07:20:17.360Z,8.88
2023-04-06T07:22:41.307Z,7.95
2023-04-06T07:25:05.593Z,7.35
2023-04-06T07:27:29.408Z,6.88
2023-04-06T07:29:53.335Z,7.80
2023-04-06T07:32:17.690Z,8.45
2023-04-06T07:34:41.436Z,7.40
2023-04-06T07:37:06.983Z,7.47
2023-04-06T07:39:31.659Z,7.22
2023-04-06T07:41:55.745Z,7.50
2023-04-06T07:44:19.567Z,7.18
2023-04-06T07:46:44.627Z,6.68
2023-04-06T07:49:08.437Z,5.88
2023-04-06T07:51:33.182Z,6.70
2023-04-06T07:53:58.467Z,6.30
2023-04-06T07:56:22.558Z,5.15
2023-04-06T07:58:46.627Z,5.43
2023-04-06T08:01:10.571Z,5.65
2023-04-06T08:03:36.766Z,4.57
2023-04-06T08:06:00.654Z,4.40
2023-04-06T08:08:24.467Z,5.45
2023-04-06T08:10:50.077Z,5.63
2023-04-06T08:13:13.835Z,5.53
2023-04-06T08:15:37.776Z,7.72
2023-04-06T08:18:01.911Z,5.40
2023-04-06T08:20:25.905Z,5.40
2023-04-06T08:22:51.653Z,4.57
2023-04-06T08:25:17.539Z,5.40
2023-04-06T08:27:42.760Z,5.10
2023-04-06T08:30:07.781Z,4.68
2023-04-06T08:32:31.717Z,4.80
2023-04-06T08:34:56.642Z,4.60
2023-04-06T08:37:20.477Z,4.20
2023-04-06T08:39:44.241Z,4.60
2023-04-06T08:42:15.618Z,4.60
2023-04-06T08:44:42.196Z,4.57
2023-04-06T08:47:08.245Z,4.07
2023-04-06T08:49:32.101Z,3.50
2023-04-06T08:51:58.426Z,3.95
2023-04-06T08:54:22.322Z,4.25
2023-04-06T08:56:46.335Z,3.45
2023-04-06T08:59:11.886Z,4.03
2023-04-06T09:01:43.416Z,4.68
2023-04-06T09:04:12.644Z,3.85
2023-04-06T09:06:37.949Z,4.00
2023-04-06T09:09:01.764Z,3.97
2023-04-06T09:11:25.693Z,3.58
2023-04-06T09:13:51.315Z,3.45
2023-04-06T09:16:15.191Z,3.30
2023-04-06T09:18:41.171Z,3.45
2023-04-06T09:21:06.791Z,3.10
2023-04-06T09:23:30.645Z,3.00
2023-04-06T09:25:54.441Z,2.90
2023-04-06T09:28:18.235Z,3.15
2023-04-06T09:30:51.476Z,3.08
2023-04-06T09:33:15.301Z,3.40
2023-04-06T09:35:40.549Z,3.13
2023-04-06T09:38:13.717Z,3.28
2023-04-06T09:40:41.464Z,3.00
2023-04-06T09:43:09.412Z,2.55
2023-04-06T09:45:33.443Z,3.00
2023-04-06T09:47:58.098Z,2.63
2023-04-06T09:50:22.971Z,2.80
2023-04-06T09:52:52.607Z,2.90
2023-04-06T09:55:23.821Z,2.90
2023-04-06T09:57:55.479Z,3.00
2023-04-06T10:00:24.476Z,2.70
2023-04-06T10:02:55.669Z,3.03
2023-04-06T10:05:29.408Z,3.72
2023-04-06T10:08:01.136Z,2.75
2023-04-06T10:10:25.357Z,2.72
2023-04-06T10:12:51.078Z,2.55
2023-04-06T10:15:14.953Z,2.72
2023-04-06T10:17:38.775Z,2.28
2023-04-06T10:20:10.931Z,2.42
2023-04-06T10:22:45.985Z,2.15
2023-04-06T10:25:12.477Z,2.55
2023-04-06T10:27:36.267Z,2.70
2023-04-06T10:30:05.289Z,2.50
2023-04-06T10:32:39.041Z,2.78
2023-04-06T10:35:10.161Z,2.70
2023-04-06T10:37:51.517Z,2.63
2023-04-06T10:40:24.728Z,2.33
2023-04-06T10:42:48.821Z,2.20
2023-04-06T10:45:22.800Z,2.70
2023-04-06T10:47:46.643Z,2.67
2023-04-06T10:50:11.730Z,2.47
2023-04-06T10:52:35.642Z,2.30
2023-04-06T10:54:59.677Z,2.33
2023-04-06T10:57:33.847Z,2.10
2023-04-06T10:59:57.782Z,2.45
2023-04-06T11:02:25.513Z,2.40
2023-04-06T11:04:59.056Z,2.20
2023-04-06T11:07:28.106Z,2.60
2023-04-06T11:10:11.241Z,2.50
2023-04-06T11:12:38.809Z,2.20
2023-04-06T11:15:05.755Z,2.72
2023-04-06T11:17:30.439Z,2.40
2023-04-06T11:19:54.487Z,2.53
2023-04-06T11:22:18.426Z,2.75
2023-04-06T11:24:42.284Z,2.83
2023-04-06T11:27:06.295Z,2.88
2023-04-06T11:29:33.104Z,2.83
2023-04-06T11:32:01.808Z,3.38
2023-04-06T11:34:27.921Z,2.83
2023-04-06T11:36:57.833Z,3.20
2023-04-06T11:39:24.223Z,3.10
2023-04-06T11:41:51.025Z,2.50
2023-04-06T11:44:14.876Z,2.60
2023-04-06T11:46:40.144Z,2.88
2023-04-06T11:49:05.163Z,3.13
2023-04-06T11:51:29.457Z,2.88
2023-04-06T11:53:53.297Z,2.70
2023-04-06T11:56:30.136Z,3.17
2023-04-06T11:58:54.362Z,2.30
2023-04-06T12:01:18.142Z,2.50
2023-04-06T12:03:43.594Z,3.13
2023-04-06T12:06:08.168Z,2.85
2023-04-06T12:08:31.961Z,3.08
2023-04-06T12:10:55.730Z,3.10
2023-04-06T12:13:19.533Z,2.70
2023-04-06T12:15:43.361Z,2.40
2023-04-06T12:18:07.306Z,3.22
2023-04-06T12:20:32.651Z,3.20
2023-04-06T12:22:56.500Z,2.55
2023-04-06T12:25:20.694Z,2.75
2023-04-06T12:27:44.508Z,2.63
2023-04-06T12:30:10.451Z,2.92
2023-04-06T12:32:34.314Z,2.80
2023-04-06T12:34:58.089Z,3.10
2023-04-06T12:37:23.449Z,3.05
2023-04-06T12:39:47.217Z,3.20
2023-04-06T12:42:11.404Z,2.92
2023-04-06T12:44:35.294Z,3.00
2023-04-06T12:46:59.148Z,2.63
2023-04-06T12:49:23.009Z,3.50
2023-04-06T12:51:46.876Z,3.08
2023-04-06T12:54:12.974Z,2.88
2023-04-06T12:56:37.503Z,3.25
2023-04-06T12:59:01.598Z,2.80
2023-04-06T13:01:26.479Z,3.13
2023-04-06T13:03:50.729Z,3.15
2023-04-06T13:06:15.779Z,3.20
2023-04-06T13:08:40.458Z,3.30
2023-04-06T13:11:06.520Z,3.53
2023-04-06T13:13:31.954Z,3.08
2023-04-06T13:16:02.174Z,3.00
2023-04-06T13:18:26.049Z,2.83
2023-04-06T13:20:50.226Z,2.70
2023-04-06T13:23:14.111Z,3.20
2023-04-06T13:25:38.035Z,2.95
2023-04-06T13:28:03.413Z,3.22
2023-04-06T13:30:27.892Z,3.17
2023-04-06T13:32:51.886Z,2.90
2023-04-06T13:35:15.966Z,2.90
2023-04-06T13:37:39.862Z,2.95
2023-04-06T13:40:05.727Z,3.05
2023-04-06T13:42:30.542Z,3.00
2023-04-06T13:44:55.731Z,3.00
2023-04-06T13:47:19.771Z,3.38
2023-04-06T13:49:43.556Z,3.15
2023-04-06T13:52:07.479Z,3.20
2023-04-06T13:54:31.245Z,2.72
2023-04-06T13:56:54.909Z,2.60
2023-04-06T13:59:18.897Z,2.90
2023-04-06T14:01:44.123Z,3.08
2023-04-06T14:04:07.983Z,2.80
2023-04-06T14:06:32.290Z,2.50
2023-04-06T14:08:56.056Z,2.70
2023-04-06T14:11:19.865Z,3.20
2023-04-06T14:13:44.047Z,3.25
2023-04-06T14:16:08.419Z,3.40
2023-04-06T14:18:35.179Z,3.10
2023-04-06T14:20:59.869Z,3.20
2023-04-06T14:23:23.578Z,3.50
2023-04-06T14:25:47.302Z,3.10
2023-04-06T14:28:10.962Z,3.40
2023-04-06T14:30:34.796Z,3.53
2023-04-06T14:33:00.288Z,3.70
2023-04-06T14:35:26.398Z,3.30
2023-04-06T14:37:50.029Z,3.50
2023-04-06T14:40:14.421Z,3.80
2023-04-06T14:42:38.871Z,3.80
2023-04-06T14:45:02.526Z,3.80
2023-04-06T14:47:26.672Z,3.78
2023-04-06T14:49:53.652Z,3.67
2023-04-06T14:52:18.865Z,3.40
2023-04-06T14:54:42.593Z,3.35
2023-04-06T14:57:06.294Z,4.60
2023-04-06T14:59:30.039Z,3.67
2023-04-06T15:01:54.068Z,3.50
2023-04-06T15:04:17.983Z,3.40
2023-04-06T15:06:41.965Z,2.95
2023-04-06T15:09:07.230Z,2.88
2023-04-06T15:11:31.186Z,3.05
2023-04-06T15:13:54.914Z,3.08
2023-04-06T15:16:18.608Z,3.13
2023-04-06T15:18:42.299Z,3.20
2023-04-06T15:21:06.158Z,3.10
2023-04-06T15:23:31.323Z,3.03
2023-04-06T15:25:56.644Z,3.00
2023-04-06T15:28:20.580Z,3.13
2023-04-06T15:30:44.937Z,3.42
2023-04-06T15:33:10.884Z,3.10
2023-04-06T15:35:40.207Z,3.05
2023-04-06T15:38:05.144Z,3.10
2023-04-06T15:40:28.858Z,3.70
2023-04-06T15:42:54.115Z,3.80
2023-04-06T15:45:19.045Z,3.40
2023-04-06T15:47:44.867Z,3.28
2023-04-06T15:50:09.905Z,3.03
2023-04-06T15:52:33.713Z,2.70
2023-04-06T15:54:57.468Z,3.40
2023-04-06T15:57:21.196Z,3.13
2023-04-06T15:59:46.373Z,2.95
2023-04-06T16:02:10.217Z,4.10
2023-04-06T16:04:34.150Z,3.60
2023-04-06T16:06:57.869Z,3.47
2023-04-06T16:09:21.879Z,2.90
2023-04-06T16:11:45.533Z,3.30
2023-04-06T16:14:10.046Z,3.10
2023-04-06T16:16:35.218Z,3.00
2023-04-06T16:18:58.969Z,3.20
2023-04-06T16:21:22.677Z,2.75
2023-04-06T16:23:47.918Z,3.25
2023-04-06T16:26:14.310Z,3.22
2023-04-06T16:28:37.970Z,2.63
2023-04-06T16:31:01.629Z,3.17
2023-04-06T16:33:26.806Z,3.10
2023-04-06T16:35:50.504Z,2.92
2023-04-06T16:38:14.354Z,3.20
2023-04-06T16:40:38.098Z,3.17
2023-04-06T16:43:01.795Z,2.95
2023-04-06T16:45:25.826Z,3.47
2023-04-06T16:47:50.629Z,3.67
2023-04-06T16:50:16.266Z,2.97
2023-04-06T16:52:39.977Z,3.10
2023-04-06T16:55:03.688Z,4.10
2023-04-06T16:57:29.754Z,3.45
2023-04-06T16:59:53.407Z,4.05
2023-04-06T17:02:17.268Z,3.25
2023-04-06T17:04:41.033Z,3.78
2023-04-06T17:07:06.179Z,3.95
2023-04-06T17:11:55.276Z,3.20
2023-04-06T17:14:19.128Z,3.55
2023-04-06T17:16:42.947Z,3.60
2023-04-06T17:19:06.619Z,3.67
2023-04-06T17:21:31.001Z,3.40
2023-04-06T17:23:56.439Z,3.22
2023-04-06T17:26:21.644Z,3.60
2023-04-06T17:28:45.664Z,3.55
2023-04-06T17:31:11.257Z,3.40
2023-04-06T17:33:35.426Z,3.20
2023-04-06T17:35:59.179Z,3.38
2023-04-06T17:38:23.997Z,3.47
2023-04-06T17:40:49.748Z,3.30
2023-04-06T17:43:13.466Z,3.60
2023-04-06T17:45:37.250Z,4.13
2023-04-06T17:48:01.035Z,3.90
2023-04-06T17:50:24.980Z,4.30
2023-04-06T17:52:49.962Z,3.92
2023-04-06T17:55:14.668Z,4.18
2023-04-06T17:57:41.998Z,4.72
2023-04-06T18:00:08.440Z,4.25
2023-04-06T18:02:32.491Z,5.10
2023-04-06T18:04:56.481Z,4.20
2023-04-06T18:07:20.284Z,4.60
2023-04-06T18:09:43.989Z,4.72
2023-04-06T18:12:08.158Z,4.20
2023-04-06T18:14:33.242Z,4.85
2023-04-06T18:16:56.900Z,4.68
2023-04-06T18:19:20.586Z,4.90
2023-04-06T18:21:44.274Z,6.03
2023-04-06T18:24:12.364Z,5.25
2023-04-06T18:26:38.965Z,5.43
2023-04-06T18:29:02.835Z,5.72
2023-04-06T18:31:28.187Z,6.10
2023-04-06T18:33:53.825Z,5.57
2023-04-06T18:36:18.290Z,6.25
2023-04-06T18:38:46.247Z,7.03
2023-04-06T18:41:10.040Z,6.78
2023-04-06T18:43:33.724Z,7.07
2023-04-06T18:45:57.900Z,7.00
2023-04-06T18:48:23.055Z,6.75
2023-04-06T18:50:54.267Z,6.68
2023-04-06T18:53:18.050Z,6.80
2023-04-06T18:55:41.673Z,7.07
2023-04-06T18:58:05.438Z,6.95
2023-04-06T19:00:29.220Z,7.60
2023-04-06T19:02:53.054Z,7.10
2023-04-06T19:05:18.623Z,7.93
2023-04-06T19:07:43.180Z,7.88
2023-04-06T19:10:09.947Z,16.63
2023-04-06T19:12:36.325Z,22.80
2023-04-06T19:15:01.279Z,21.23
2023-04-06T19:17:25.133Z,17.13
2023-04-06T19:19:48.966Z,12.80
2023-04-06T19:22:15.220Z,13.50
2023-04-06T19:24:39.130Z,12.18
2023-04-06T19:27:02.820Z,11.93
2023-04-06T19:29:26.513Z,11.48
2023-04-06T19:31:50.330Z,11.37
2023-04-06T19:34:17.770Z,11.97
2023-04-06T19:36:41.478Z,10.30
2023-04-06T19:39:06.656Z,10.50
2023-04-06T19:41:30.408Z,10.82
2023-04-06T19:43:54.409Z,10.25
2023-04-06T19:46:18.284Z,10.70
2023-04-06T19:48:42.262Z,10.53
2023-04-06T19:51:07.045Z,10.35
2023-04-06T19:53:30.858Z,10.23
2023-04-06T19:55:56.088Z,10.32
2023-04-06T19:58:21.592Z,10.60
2023-04-06T20:00:45.370Z,10.48
2023-04-06T20:03:09.243Z,10.70
2023-04-06T20:05:33.212Z,11.07
2023-04-06T20:07:56.884Z,9.93
2023-04-06T20:10:20.891Z,10.33
2023-04-06T20:12:47.236Z,9.93
2023-04-06T20:15:11.554Z,10.40
2023-04-06T20:17:35.299Z,9.60
2023-04-06T20:19:59.010Z,10.53
2023-04-06T20:22:22.815Z,10.43
2023-04-06T20:24:46.545Z,10.10
2023-04-06T20:27:10.309Z,10.57
2023-04-06T20:29:35.554Z,10.40
2023-04-06T20:32:01.403Z,10.73
2023-04-06T20:34:28.919Z,10.57
2023-04-06T20:36:52.547Z,10.10
2023-04-06T20:39:16.294Z,10.47
2023-04-06T20:41:39.958Z,11.70
2023-04-06T20:44:03.699Z,10.67
2023-04-06T20:46:28.947Z,11.80
2023-04-06T20:48:53.808Z,10.40
2023-04-06T20:51:23.233Z,10.57
2023-04-06T20:53:47.235Z,10.57
2023-04-06T20:56:10.908Z,11.83
2023-04-06T20:58:34.626Z,11.30
2023-04-06T21:00:58.220Z,11.30
2023-04-06T21:03:23.448Z,10.93
2023-04-06T21:05:52.898Z,11.37
2023-04-06T21:08:16.739Z,11.43
2023-04-06T21:10:40.556Z,11.93
2023-04-06T21:13:04.282Z,11.83
2023-04-06T21:15:28.621Z,12.07
2023-04-06T21:17:52.430Z,11.37
2023-04-06T21:20:17.744Z,12.07
2023-04-06T21:22:41.513Z,12.30
2023-04-06T21:25:05.630Z,11.80
2023-04-06T21:27:29.428Z,13.00
2023-04-06T21:29:53.177Z,12.70
2023-04-06T21:32:17.045Z,12.37
2023-04-06T21:34:42.884Z,12.60
2023-04-06T21:37:08.101Z,12.23
2023-04-06T21:39:31.811Z,11.97
2023-04-06T21:41:56.402Z,12.17
2023-04-06T21:44:20.303Z,11.97
2023-04-06T21:46:44.436Z,12.30
2023-04-06T21:49:08.158Z,11.90
2023-04-06T21:51:32.521Z,12.33
2023-04-06T21:53:57.764Z,11.97
2023-04-06T21:56:22.544Z,12.47
2023-04-06T21:58:46.511Z,12.70
2023-04-06T22:01:11.974Z,12.40
2023-04-06T22:03:35.853Z,12.93
2023-04-06T22:05:59.711Z,12.00
2023-04-06T22:08:33.750Z,12.03
2023-04-06T22:10:59.760Z,11.10
2023-04-06T22:13:23.544Z,12.53
2023-04-06T22:15:47.304Z,13.07
2023-04-06T22:18:10.979Z,12.70
2023-04-06T22:20:34.874Z,13.13
2023-04-06T22:22:58.780Z,14.43
2023-04-06T22:25:22.442Z,12.83
2023-04-06T22:27:47.545Z,13.07
2023-04-06T22:30:12.688Z,12.90
2023-04-06T22:32:36.425Z,13.43
2023-04-06T22:35:00.270Z,13.27
2023-04-06T22:37:23.862Z,14.73
2023-04-06T22:39:47.630Z,13.90
2023-04-06T22:42:11.290Z,13.70
2023-04-06T22:44:36.417Z,14.70
2023-04-06T22:47:00.211Z,14.90
2023-04-06T22:49:24.021Z,14.73
2023-04-06T22:51:47.718Z,14.70
2023-04-06T22:54:12.519Z,16.17
2023-04-06T22:56:36.259Z,16.43
2023-04-06T22:58:59.953Z,17.43
2023-04-06T23:01:25.009Z,19.40
2023-04-06T23:03:48.974Z,21.77
2023-04-06T23:06:12.663Z,24.07
2023-04-06T23:08:36.391Z,26.67
2023-04-06T23:11:00.010Z,25.83
2023-04-06T23:13:23.753Z,28.90
2023-04-06T23:15:47.362Z,27.67
2023-04-06T23:18:12.560Z,28.30
2023-04-06T23:20:36.521Z,27.53
2023-04-06T23:23:00.189Z,27.50
2023-04-06T23:25:24.060Z,24.93
2023-04-06T23:27:47.765Z,25.50
2023-04-06T23:30:12.083Z,26.43
2023-04-06T23:32:35.947Z,25.83
2023-04-06T23:35:01.322Z,28.83
2023-04-06T23:37:24.999Z,27.57
2023-04-06T23:39:49.300Z,26.77
2023-04-06T23:42:12.999Z,26.40
2023-04-06T23:44:36.618Z,25.67
2023-04-06T23:47:00.555Z,24.43
2023-04-06T23:49:24.239Z,22.03
2023-04-06T23:51:49.426Z,21.87
2023-04-06T23:54:13.101Z,21.27
2023-04-06T23:56:36.942Z,20.13
2023-04-06T23:59:00.612Z,20.13
